Time;durP1;ratioP1;P1;durP2;ratioP2;P2;SDS_P1;SDS_P2;PMS_P1;PMS_P2;Temp;Humidity;BMP_temperature;BMP_pressure;BME280_temperature;BME280_humidity;BME280_pressure;Samples;Min_cycle;Max_cycle;Signal;HPM_P1;HPM_P2
2022/11/09 00:03:29;;;;;;;10.03;4.97;;;8.30;99.90;;;;;;20894288;28;20119;-78
2022/11/09 00:13:30;;;;;;;16.87;5.53;;;8.20;99.90;;;;;;20894192;28;20132;-77
2022/11/09 00:23:31;;;;;;;11.77;5.37;;;8.30;99.90;;;;;;20892406;28;20041;-78
2022/11/09 00:33:32;;;;;;;8.87;5.03;;;8.30;99.90;;;;;;20970642;28;20308;-77
2022/11/09 00:43:33;;;;;;;;;;;8.50;99.90;;;;;;20996289;28;20131;-78
2022/11/09 00:53:34;;;;;;;13.43;5.20;;;8.40;99.90;;;;;;21015558;28;20388;-79
2022/11/09 01:03:35;;;;;;;8.25;5.10;;;8.10;99.90;;;;;;21015402;28;20089;-78
2022/11/09 01:13:37;;;;;;;11.48;4.22;;;8.30;99.90;;;;;;21044718;22;20055;-77
2022/11/09 01:23:38;;;;;;;10.40;3.85;;;8.50;99.90;;;;;;21123318;28;20091;-78
2022/11/09 01:33:39;;;;;;;;;;;8.60;99.90;;;;;;21104197;28;20737;-78
2022/11/09 01:43:40;;;;;;;9.07;4.77;;;8.70;99.90;;;;;;21100489;28;19919;-78
2022/11/09 01:53:44;;;;;;;10.18;4.65;;;8.60;99.90;;;;;;21101869;28;20078;-78
2022/11/09 02:03:56;;;;;;;10.00;5.57;;;8.30;99.90;;;;;;21099636;28;20464;-78
2022/11/09 02:14:00;;;;;;;9.45;5.70;;;8.20;99.90;;;;;;21096041;28;20128;-78
2022/11/09 02:24:01;;;;;;;10.10;5.45;;;8.20;99.90;;;;;;21098615;28;20502;-78
2022/11/09 02:34:09;;;;;;;15.40;6.13;;;8.20;99.90;;;;;;21098715;28;20091;-77
2022/11/09 02:44:11;;;;;;;12.82;6.15;;;8.00;99.90;;;;;;21099236;28;20035;-77
2022/11/09 02:54:11;;;;;;;;;;;7.90;99.90;;;;;;21102007;28;20038;-78
2022/11/09 03:04:14;;;;;;;9.82;5.75;;;8.00;99.90;;;;;;21093152;28;19912;-78
2022/11/09 03:14:15;;;;;;;;;;;8.10;99.90;;;;;;21113659;28;20036;-78
2022/11/09 03:24:23;;;;;;;12.82;6.43;;;8.10;99.90;;;;;;21087567;28;19934;-78
2022/11/09 03:34:27;;;;;;;9.60;5.97;;;8.10;99.90;;;;;;21071849;28;20367;-77
2022/11/09 03:44:29;;;;;;;;;;;8.10;99.90;;;;;;21070548;28;20036;-77
2022/11/09 03:54:29;;;;;;;13.98;6.75;;;8.10;99.90;;;;;;21088653;28;19998;-77
2022/11/09 04:04:30;;;;;;;14.57;6.37;;;8.10;99.90;;;;;;21087230;28;20035;-77
2022/11/09 04:14:31;;;;;;;14.93;7.03;;;7.90;99.90;;;;;;21068298;28;20440;-77
2022/11/09 04:24:32;;;;;;;18.67;7.20;;;8.00;99.90;;;;;;21087217;28;20035;-77
2022/11/09 04:34:32;;;;;;;14.63;7.87;;;8.10;99.90;;;;;;21087954;28;20024;-78
2022/11/09 04:44:35;;;;;;;15.63;8.15;;;8.00;99.90;;;;;;20972150;28;20033;-77
2022/11/09 04:54:35;;;;;;;16.77;9.03;;;8.00;99.90;;;;;;20922607;28;20090;-78
2022/11/09 05:04:36;;;;;;;16.97;7.93;;;7.90;99.90;;;;;;20948972;28;20032;-78
2022/11/09 05:14:37;;;;;;;11.83;7.20;;;7.90;99.90;;;;;;20954769;28;20124;-78
2022/11/09 05:24:38;;;;;;;21.50;10.07;;;8.00;99.90;;;;;;20956433;28;20029;-77
2022/11/09 05:34:39;;;;;;;15.83;8.97;;;8.00;99.90;;;;;;20975469;28;20354;-77
2022/11/09 05:44:39;;;;;;;17.17;9.57;;;8.00;99.90;;;;;;20964707;28;20028;-78
2022/11/09 05:54:40;;;;;;;16.93;9.47;;;8.00;99.90;;;;;;21074409;28;20042;-77
2022/11/09 06:04:41;;;;;;;15.27;9.10;;;8.00;99.90;;;;;;21031139;28;20024;-78
2022/11/09 06:14:42;;;;;;;19.63;11.20;;;8.00;99.90;;;;;;21092459;28;20023;-78
2022/11/09 06:24:43;;;;;;;16.63;9.73;;;8.00;99.90;;;;;;21127471;28;20032;-77
2022/11/09 06:34:47;;;;;;;20.20;9.65;;;8.00;99.90;;;;;;21100389;28;20475;-77
2022/11/09 06:44:47;;;;;;;20.48;11.27;;;8.00;99.90;;;;;;21093872;28;20105;-77
2022/11/09 06:54:48;;;;;;;20.40;11.63;;;8.10;99.90;;;;;;21090814;28;20438;-77
2022/11/09 07:04:52;;;;;;;21.40;12.80;;;8.10;99.90;;;;;;21106929;28;20035;-78
2022/11/09 07:14:53;;;;;;;24.15;12.25;;;8.20;99.90;;;;;;21075422;28;20315;-77
2022/11/09 07:24:54;;;;;;;26.10;12.20;;;8.20;99.90;;;;;;21073986;28;20542;-77
2022/11/09 07:34:55;;;;;;;24.48;13.05;;;8.20;99.90;;;;;;21089148;28;20147;-76
2022/11/09 07:44:56;;;;;;;23.13;12.33;;;8.30;99.90;;;;;;21092702;28;20031;-77
2022/11/09 07:54:56;;;;;;;21.40;12.30;;;8.30;99.90;;;;;;21077374;28;20039;-78
2022/11/09 08:04:57;;;;;;;23.00;13.23;;;8.40;99.90;;;;;;21071012;28;20056;-78
2022/11/09 08:14:58;;;;;;;22.10;13.10;;;8.40;99.90;;;;;;21096940;28;20028;-78
2022/11/09 08:24:59;;;;;;;22.37;12.40;;;8.50;99.90;;;;;;21118060;28;20024;-78
2022/11/09 08:35:01;;;;;;;26.73;13.13;;;8.60;99.90;;;;;;21103091;28;20058;-78
2022/11/09 08:45:02;;;;;;;23.67;12.40;;;8.60;99.90;;;;;;21122229;28;20032;-79
2022/11/09 08:55:03;;;;;;;;;;;8.80;99.90;;;;;;21115981;28;20038;-78
2022/11/09 09:05:04;;;;;;;23.63;12.88;;;8.90;99.90;;;;;;21144042;28;19912;-79
2022/11/09 09:15:05;;;;;;;22.00;12.15;;;9.00;99.90;;;;;;21120582;28;20054;-79
2022/11/09 09:25:07;;;;;;;21.02;11.68;;;9.10;99.90;;;;;;21121001;28;20069;-78
2022/11/09 09:35:08;;;;;;;24.17;11.73;;;9.30;99.90;;;;;;21100537;28;20052;-78
2022/11/09 09:45:22;;;;;;;17.77;10.25;;;9.40;99.90;;;;;;21113762;28;20553;-79
2022/11/09 09:55:23;;;;;;;18.23;8.65;;;9.50;99.90;;;;;;21132855;28;20072;-79
2022/11/09 10:05:35;;;;;;;14.97;9.17;;;9.60;99.90;;;;;;21131944;28;20028;-79
2022/11/09 10:15:53;;;;;;;12.93;7.75;;;9.80;99.90;;;;;;20962248;28;20103;-79
2022/11/09 10:26:01;;;;;;;12.95;8.27;;;10.00;99.90;;;;;;20958032;28;20040;-77
2022/11/09 10:36:14;;;;;;;18.98;10.73;;;10.10;99.90;;;;;;20922581;28;20069;-78
2022/11/09 10:46:15;;;;;;;18.02;10.38;;;10.30;99.90;;;;;;20969920;28;20040;-78
2022/11/09 10:56:44;;;;;;;19.50;11.25;;;10.30;99.90;;;;;;21037067;28;20040;-79
2022/11/09 11:07:13;;;;;;;18.35;10.57;;;10.40;99.90;;;;;;21028718;28;20040;-78
2022/11/09 11:17:36;;;;;;;22.70;11.13;;;10.50;99.90;;;;;;21087344;28;20044;-79
2022/11/09 11:28:05;;;;;;;15.68;9.50;;;10.70;99.90;;;;;;21029705;28;20045;-78
2022/11/09 11:38:36;;;;;;;17.30;8.90;;;11.10;99.90;;;;;;21003591;28;20045;-79
2022/11/09 11:49:14;;;;;;;17.52;8.80;;;11.10;99.90;;;;;;21007094;28;20049;-79
2022/11/09 11:59:37;;;;;;;17.10;9.57;;;11.20;99.90;;;;;;21028359;28;20036;-78
2022/11/09 12:10:27;;;;;;;14.50;8.43;;;11.20;99.90;;;;;;21032689;28;20036;-78
2022/11/09 12:20:58;;;;;;;17.27;9.48;;;11.40;99.90;;;;;;21034772;28;20033;-79
2022/11/09 12:31:55;;;;;;;13.50;8.93;;;11.50;99.90;;;;;;21033049;28;20045;-77
2022/11/09 12:42:22;;;;;;;13.10;9.52;;;11.40;99.90;;;;;;21013532;28;20037;-77
2022/11/09 12:52:44;;;;;;;19.15;10.02;;;11.40;99.90;;;;;;21012005;28;20028;-77
2022/11/09 13:03:12;;;;;;;16.50;10.63;;;11.20;99.90;;;;;;21012688;28;20049;-77
2022/11/09 13:13:32;;;;;;;17.17;10.82;;;11.20;99.90;;;;;;21000173;28;20483;-77
2022/11/09 13:23:54;;;;;;;15.70;10.10;;;11.20;99.90;;;;;;21007256;28;20127;-78
2022/11/09 13:34:38;;;;;;;17.13;10.52;;;11.20;99.90;;;;;;20919465;28;20037;-78
2022/11/09 13:45:24;;;;;;;22.35;10.52;;;11.10;99.90;;;;;;20930065;28;20040;-77
2022/11/09 13:55:43;;;;;;;18.83;9.95;;;11.00;99.90;;;;;;20956855;28;20499;-78
2022/11/09 14:06:04;;;;;;;16.92;9.73;;;11.00;99.90;;;;;;21051283;28;20067;-78
2022/11/09 14:16:56;;;;;;;20.48;11.98;;;11.00;99.90;;;;;;21067345;28;20048;-77
2022/11/09 14:27:19;;;;;;;30.30;14.48;;;11.00;99.90;;;;;;20987056;28;20040;-78
2022/11/09 14:37:43;;;;;;;98.35;37.42;;;10.90;99.90;;;;;;21015298;28;20032;-77
2022/11/09 14:48:02;;;;;;;31.92;17.08;;;10.90;99.90;;;;;;20985375;28;20041;-77
2022/11/09 14:58:22;;;;;;;23.30;13.38;;;10.90;99.90;;;;;;20975577;28;20403;-77
2022/11/09 15:08:56;;;;;;;21.88;11.18;;;10.90;99.90;;;;;;20995907;28;20032;-77
2022/11/09 15:19:27;;;;;;;21.67;11.32;;;10.70;99.90;;;;;;20995906;28;20037;-77
2022/11/09 15:29:46;;;;;;;22.23;10.98;;;10.70;99.90;;;;;;21078392;28;20436;-77
2022/11/09 15:40:10;;;;;;;17.10;9.73;;;10.70;99.90;;;;;;21045525;28;20036;-77
2022/11/09 15:50:29;;;;;;;18.02;10.88;;;10.70;99.90;;;;;;21002374;28;20032;-77
2022/11/09 16:00:48;;;;;;;34.65;13.27;;;10.80;99.90;;;;;;20915359;28;20096;-77
2022/11/09 16:11:09;;;;;;;38.08;12.32;;;10.80;99.90;;;;;;20911998;28;20450;-77
2022/11/09 16:21:28;;;;;;;41.10;12.85;;;10.70;99.90;;;;;;20927812;28;20068;-77
2022/11/09 16:31:47;;;;;;;41.33;14.07;;;10.60;99.90;;;;;;20954525;28;20450;-77
2022/11/09 16:42:09;;;;;;;18.60;10.68;;;10.60;99.90;;;;;;20952615;28;20037;-77
2022/11/09 16:52:28;;;;;;;18.88;10.90;;;10.60;99.90;;;;;;20945290;28;20040;-77
2022/11/09 17:02:47;;;;;;;20.40;10.98;;;10.50;99.90;;;;;;21006046;28;20407;-77
2022/11/09 17:13:07;;;;;;;23.73;11.02;;;10.50;99.90;;;;;;20915425;28;20128;-77
2022/11/09 17:23:26;;;;;;;18.13;10.75;;;10.50;99.90;;;;;;20907112;28;20033;-77
2022/11/09 17:33:46;;;;;;;16.42;9.32;;;10.70;99.90;;;;;;20970161;28;20041;-78
2022/11/09 17:44:05;;;;;;;29.77;15.75;;;10.70;99.90;;;;;;20965859;28;20040;-77
2022/11/09 17:54:26;;;;;;;60.88;30.40;;;10.70;99.90;;;;;;21028685;28;20503;-77
2022/11/09 18:04:46;;;;;;;45.73;27.90;;;10.70;99.90;;;;;;20920276;28;20495;-77
2022/11/09 18:15:05;;;;;;;22.23;13.27;;;10.60;99.90;;;;;;20918389;28;20040;-76
2022/11/09 18:25:25;;;;;;;28.58;13.48;;;10.60;99.90;;;;;;20950383;28;20049;-77
2022/11/09 18:35:57;;;;;;;15.80;9.50;;;10.50;99.90;;;;;;21070407;28;20044;-77
2022/11/09 18:46:18;;;;;;;13.67;9.30;;;10.40;99.90;;;;;;21055710;28;20048;-77
2022/11/09 18:56:37;;;;;;;21.63;11.02;;;10.40;99.90;;;;;;20961436;28;20266;-78
2022/11/09 19:06:56;;;;;;;19.83;11.77;;;10.30;99.90;;;;;;20961429;28;20044;-77
2022/11/09 19:17:16;;;;;;;18.83;11.65;;;10.20;99.90;;;;;;20960572;28;20040;-78
2022/11/09 19:27:35;;;;;;;18.92;9.98;;;10.20;99.90;;;;;;20967395;28;20036;-77
2022/11/09 19:37:55;;;;;;;23.20;10.88;;;10.10;99.90;;;;;;20936160;28;20127;-78
2022/11/09 19:48:14;;;;;;;86.13;13.65;;;10.00;99.90;;;;;;20930620;28;20119;-77
2022/11/09 19:58:34;;;;;;;23.95;12.00;;;9.70;99.90;;;;;;21053781;28;20045;-78
2022/11/09 20:08:54;;;;;;;15.52;9.25;;;9.80;99.90;;;;;;20997239;28;20449;-78
2022/11/09 20:19:14;;;;;;;19.55;10.05;;;9.70;99.90;;;;;;21060418;28;20104;-78
2022/11/09 20:29:33;;;;;;;25.13;13.60;;;9.60;99.90;;;;;;21040753;28;20414;-77
2022/11/09 20:39:52;;;;;;;23.55;11.65;;;9.60;99.90;;;;;;20983529;28;20115;-77
2022/11/09 20:50:12;;;;;;;28.20;14.07;;;9.60;99.90;;;;;;21014747;28;20036;-77
2022/11/09 21:00:32;;;;;;;89.85;40.17;;;9.60;99.90;;;;;;21047118;28;20041;-78
2022/11/09 21:10:52;;;;;;;33.33;18.15;;;9.60;99.90;;;;;;20967928;28;20041;-78
2022/11/09 21:21:14;;;;;;;31.45;18.52;;;9.70;99.90;;;;;;20934127;28;20041;-78
2022/11/09 21:31:33;;;;;;;44.57;16.30;;;9.80;99.90;;;;;;20940093;28;20032;-78
2022/11/09 21:41:52;;;;;;;24.60;12.05;;;9.70;99.90;;;;;;20969007;28;20064;-77
2022/11/09 21:52:12;;;;;;;30.27;12.70;;;9.80;99.90;;;;;;20972364;28;20127;-77
2022/11/09 22:02:31;;;;;;;27.98;13.93;;;9.70;99.90;;;;;;20970098;28;20028;-77
2022/11/09 22:23:28;;;;;;;25.00;14.18;;;9.70;99.90;;;;;;20967168;28;20036;-77
2022/11/09 22:33:48;;;;;;;19.05;10.07;;;9.80;99.90;;;;;;20985053;28;20074;-77
2022/11/09 22:44:07;;;;;;;16.30;7.93;;;9.80;99.90;;;;;;21005635;28;20032;-77
2022/11/09 22:54:26;;;;;;;15.00;8.02;;;9.90;99.90;;;;;;20997798;28;20048;-78
2022/11/09 23:04:46;;;;;;;17.27;9.50;;;10.00;99.90;;;;;;20998056;28;20040;-77
2022/11/09 23:15:11;;;;;;;47.78;11.20;;;10.00;99.90;;;;;;20995842;28;20048;-77
2022/11/09 23:36:09;;;;;;;21.77;11.57;;;10.10;99.90;;;;;;20995658;28;20521;-77
2022/11/09 23:46:28;;;;;;;26.77;13.70;;;10.20;99.90;;;;;;20982828;28;20623;-77
2022/11/09 23:56:47;;;;;;;29.58;13.45;;;10.30;99.90;;;;;;20993426;28;20037;-77
